sensor_id;sensor_type;location;lat;lon;timestamp;pressure;altitude;pressure_sealevel;temperature;humidity
81299;BME280;70766;53.170;18.160;2024-03-23T00:53:34;100238.80;;;7.17;100.00
81299;BME280;70766;53.170;18.160;2024-03-23T00:56:02;100238.69;;;7.16;100.00
81299;BME280;70766;53.170;18.160;2024-03-23T00:58:31;100235.83;;;7.15;100.00
81299;BME280;70766;53.170;18.160;2024-03-23T01:00:58;100236.04;;;7.13;100.00
81299;BME280;70766;53.170;18.160;2024-03-23T01:03:26;100230.84;;;7.11;100.00
81299;BME280;70766;53.170;18.160;2024-03-23T01:05:54;100230.33;;;7.08;100.00
81299;BME280;70766;53.170;18.160;2024-03-23T01:08:22;100235.98;;;7.07;100.00
81299;BME280;70766;53.170;18.160;2024-03-23T01:10:55;100235.10;;;7.06;100.00
81299;BME280;70766;53.170;18.160;2024-03-23T01:13:23;100235.07;;;7.04;100.00
81299;BME280;70766;53.170;18.160;2024-03-23T01:15:52;100233.33;;;7.02;100.00
81299;BME280;70766;53.170;18.160;2024-03-23T01:18:21;100237.55;;;7.01;100.00
81299;BME280;70766;53.170;18.160;2024-03-23T01:20:50;100238.84;;;7.00;100.00
81299;BME280;70766;53.170;18.160;2024-03-23T01:23:18;100236.95;;;6.99;100.00
81299;BME280;70766;53.170;18.160;2024-03-23T01:25:55;100238.71;;;7.00;100.00
81299;BME280;70766;53.170;18.160;2024-03-23T01:28:23;100242.36;;;7.00;100.00
81299;BME280;70766;53.170;18.160;2024-03-23T01:30:51;100245.11;;;7.01;100.00
81299;BME280;70766;53.170;18.160;2024-03-23T01:33:19;100242.48;;;7.00;100.00
81299;BME280;70766;53.170;18.160;2024-03-23T01:35:47;100234.96;;;7.01;100.00
81299;BME280;70766;53.170;18.160;2024-03-23T01:38:15;100231.60;;;7.01;100.00
81299;BME280;70766;53.170;18.160;2024-03-23T01:40:43;100229.06;;;7.01;100.00
81299;BME280;70766;53.170;18.160;2024-03-23T01:43:10;100225.60;;;7.02;100.00
81299;BME280;70766;53.170;18.160;2024-03-23T01:45:39;100227.14;;;7.01;100.00
81299;BME280;70766;53.170;18.160;2024-03-23T01:48:07;100225.11;;;7.01;100.00
81299;BME280;70766;53.170;18.160;2024-03-23T01:50:35;100227.81;;;7.02;100.00
81299;BME280;70766;53.170;18.160;2024-03-23T01:53:04;100226.14;;;7.02;100.00
81299;BME280;70766;53.170;18.160;2024-03-23T01:55:33;100223.04;;;7.01;100.00
81299;BME280;70766;53.170;18.160;2024-03-23T01:58:05;100222.87;;;7.01;100.00
81299;BME280;70766;53.170;18.160;2024-03-23T02:00:34;100228.40;;;7.02;100.00
81299;BME280;70766;53.170;18.160;2024-03-23T02:03:02;100227.12;;;7.02;100.00
81299;BME280;70766;53.170;18.160;2024-03-23T02:05:30;100226.48;;;7.02;100.00
81299;BME280;70766;53.170;18.160;2024-03-23T02:07:58;100223.06;;;7.02;100.00
81299;BME280;70766;53.170;18.160;2024-03-23T02:10:26;100226.39;;;7.01;100.00
81299;BME280;70766;53.170;18.160;2024-03-23T02:12:54;100222.94;;;7.01;100.00
81299;BME280;70766;53.170;18.160;2024-03-23T02:15:22;100221.59;;;7.01;100.00
81299;BME280;70766;53.170;18.160;2024-03-23T02:17:49;100213.30;;;7.01;100.00
81299;BME280;70766;53.170;18.160;2024-03-23T02:20:17;100211.34;;;7.01;100.00
81299;BME280;70766;53.170;18.160;2024-03-23T02:22:46;100211.13;;;7.01;100.00
81299;BME280;70766;53.170;18.160;2024-03-23T02:25:13;100210.80;;;7.01;100.00
81299;BME280;70766;53.170;18.160;2024-03-23T02:27:41;100211.38;;;7.00;100.00
81299;BME280;70766;53.170;18.160;2024-03-23T02:30:09;100206.95;;;7.00;100.00
81299;BME280;70766;53.170;18.160;2024-03-23T02:32:43;100205.88;;;7.00;100.00
81299;BME280;70766;53.170;18.160;2024-03-23T02:35:10;100201.39;;;7.00;100.00
81299;BME280;70766;53.170;18.160;2024-03-23T02:37:38;100195.77;;;7.00;100.00
81299;BME280;70766;53.170;18.160;2024-03-23T02:40:06;100198.45;;;7.00;100.00
81299;BME280;70766;53.170;18.160;2024-03-23T02:42:34;100191.52;;;6.99;100.00
81299;BME280;70766;53.170;18.160;2024-03-23T02:45:03;100187.25;;;6.99;100.00
81299;BME280;70766;53.170;18.160;2024-03-23T02:47:33;100182.45;;;6.97;100.00
81299;BME280;70766;53.170;18.160;2024-03-23T02:50:01;100187.34;;;6.97;100.00
81299;BME280;70766;53.170;18.160;2024-03-23T02:52:29;100179.02;;;6.96;100.00
81299;BME280;70766;53.170;18.160;2024-03-23T02:54:57;100179.37;;;6.96;100.00
81299;BME280;70766;53.170;18.160;2024-03-23T02:57:25;100176.17;;;6.97;100.00
81299;BME280;70766;53.170;18.160;2024-03-23T02:59:54;100171.25;;;6.97;100.00
81299;BME280;70766;53.170;18.160;2024-03-23T03:06:58;100157.12;;;6.96;100.00
81299;BME280;70766;53.170;18.160;2024-03-23T03:09:26;100149.98;;;6.97;100.00
81299;BME280;70766;53.170;18.160;2024-03-23T03:11:53;100144.41;;;6.97;100.00
81299;BME280;70766;53.170;18.160;2024-03-23T03:14:21;100138.58;;;6.97;100.00
81299;BME280;70766;53.170;18.160;2024-03-23T03:16:50;100135.78;;;6.96;100.00
81299;BME280;70766;53.170;18.160;2024-03-23T03:19:18;100138.66;;;6.96;100.00
81299;BME280;70766;53.170;18.160;2024-03-23T03:21:46;100142.63;;;6.95;100.00
81299;BME280;70766;53.170;18.160;2024-03-23T03:24:15;100133.77;;;6.92;100.00
81299;BME280;70766;53.170;18.160;2024-03-23T03:26:43;100130.33;;;6.90;100.00
81299;BME280;70766;53.170;18.160;2024-03-23T03:29:11;100129.66;;;6.87;100.00
81299;BME280;70766;53.170;18.160;2024-03-23T03:31:39;100126.71;;;6.85;100.00
81299;BME280;70766;53.170;18.160;2024-03-23T03:34:07;100124.83;;;6.85;100.00
81299;BME280;70766;53.170;18.160;2024-03-23T03:36:35;100124.30;;;6.84;100.00
81299;BME280;70766;53.170;18.160;2024-03-23T03:39:03;100128.26;;;6.82;100.00
81299;BME280;70766;53.170;18.160;2024-03-23T03:41:31;100124.07;;;6.82;100.00
81299;BME280;70766;53.170;18.160;2024-03-23T03:44:00;100125.39;;;6.81;100.00
81299;BME280;70766;53.170;18.160;2024-03-23T03:46:29;100118.19;;;6.79;100.00
81299;BME280;70766;53.170;18.160;2024-03-23T03:48:57;100123.68;;;6.79;100.00
81299;BME280;70766;53.170;18.160;2024-03-23T03:51:25;100121.46;;;6.79;100.00
81299;BME280;70766;53.170;18.160;2024-03-23T03:53:53;100123.66;;;6.77;100.00
81299;BME280;70766;53.170;18.160;2024-03-23T03:56:21;100125.30;;;6.77;100.00
81299;BME280;70766;53.170;18.160;2024-03-23T03:58:49;100122.84;;;6.76;100.00
81299;BME280;70766;53.170;18.160;2024-03-23T04:01:17;100122.46;;;6.77;100.00
81299;BME280;70766;53.170;18.160;2024-03-23T04:03:45;100123.02;;;6.77;100.00
81299;BME280;70766;53.170;18.160;2024-03-23T04:06:20;100116.80;;;6.76;100.00
81299;BME280;70766;53.170;18.160;2024-03-23T04:08:48;100119.90;;;6.76;100.00
81299;BME280;70766;53.170;18.160;2024-03-23T04:11:16;100118.29;;;6.76;100.00
81299;BME280;70766;53.170;18.160;2024-03-23T04:13:44;100122.52;;;6.76;100.00
81299;BME280;70766;53.170;18.160;2024-03-23T04:16:12;100127.81;;;6.75;100.00
81299;BME280;70766;53.170;18.160;2024-03-23T04:18:40;100123.97;;;6.75;100.00
81299;BME280;70766;53.170;18.160;2024-03-23T04:21:08;100117.08;;;6.73;100.00
81299;BME280;70766;53.170;18.160;2024-03-23T04:23:36;100109.61;;;6.72;100.00
81299;BME280;70766;53.170;18.160;2024-03-23T04:26:04;100100.16;;;6.70;100.00
81299;BME280;70766;53.170;18.160;2024-03-23T04:28:32;100098.33;;;6.69;100.00
81299;BME280;70766;53.170;18.160;2024-03-23T04:31:05;100103.56;;;6.70;100.00
81299;BME280;70766;53.170;18.160;2024-03-23T04:33:33;100099.89;;;6.69;100.00
81299;BME280;70766;53.170;18.160;2024-03-23T04:36:01;100102.54;;;6.69;100.00
81299;BME280;70766;53.170;18.160;2024-03-23T04:38:29;100102.09;;;6.69;100.00
81299;BME280;70766;53.170;18.160;2024-03-23T04:40:58;100100.98;;;6.68;100.00
81299;BME280;70766;53.170;18.160;2024-03-23T04:43:26;100101.95;;;6.66;100.00
81299;BME280;70766;53.170;18.160;2024-03-23T04:45:54;100098.23;;;6.63;100.00
81299;BME280;70766;53.170;18.160;2024-03-23T04:48:23;100098.27;;;6.63;100.00
81299;BME280;70766;53.170;18.160;2024-03-23T04:50:55;100098.19;;;6.62;100.00
81299;BME280;70766;53.170;18.160;2024-03-23T04:53:25;100101.15;;;6.63;100.00
81299;BME280;70766;53.170;18.160;2024-03-23T04:55:56;100102.70;;;6.63;100.00
81299;BME280;70766;53.170;18.160;2024-03-23T04:58:25;100106.42;;;6.63;100.00
81299;BME280;70766;53.170;18.160;2024-03-23T05:00:56;100104.91;;;6.64;100.00
81299;BME280;70766;53.170;18.160;2024-03-23T05:03:25;100095.85;;;6.64;100.00
81299;BME280;70766;53.170;18.160;2024-03-23T05:05:53;100099.99;;;6.65;100.00
81299;BME280;70766;53.170;18.160;2024-03-23T05:08:23;100101.30;;;6.66;100.00
81299;BME280;70766;53.170;18.160;2024-03-23T05:11:18;100101.82;;;6.67;100.00
81299;BME280;70766;53.170;18.160;2024-03-23T05:13:48;100093.41;;;6.67;100.00
81299;BME280;70766;53.170;18.160;2024-03-23T05:16:16;100081.34;;;6.69;100.00
81299;BME280;70766;53.170;18.160;2024-03-23T05:18:44;100077.98;;;6.68;100.00
81299;BME280;70766;53.170;18.160;2024-03-23T05:21:12;100070.21;;;6.68;100.00
81299;BME280;70766;53.170;18.160;2024-03-23T05:23:39;100074.30;;;6.70;100.00
81299;BME280;70766;53.170;18.160;2024-03-23T05:30:41;100055.30;;;6.78;100.00
81299;BME280;70766;53.170;18.160;2024-03-23T05:37:44;100056.29;;;6.83;100.00
81299;BME280;70766;53.170;18.160;2024-03-23T05:40:12;100054.48;;;6.83;100.00
81299;BME280;70766;53.170;18.160;2024-03-23T05:42:43;100048.17;;;6.85;100.00
81299;BME280;70766;53.170;18.160;2024-03-23T05:45:10;100048.39;;;6.86;100.00
81299;BME280;70766;53.170;18.160;2024-03-23T05:47:39;100041.54;;;6.90;100.00
81299;BME280;70766;53.170;18.160;2024-03-23T05:50:08;100047.27;;;6.91;100.00
81299;BME280;70766;53.170;18.160;2024-03-23T05:52:38;100045.98;;;6.93;100.00
81299;BME280;70766;53.170;18.160;2024-03-23T05:55:06;100041.22;;;6.98;100.00
81299;BME280;70766;53.170;18.160;2024-03-23T05:57:34;100033.70;;;7.03;100.00
81299;BME280;70766;53.170;18.160;2024-03-23T06:00:02;100013.39;;;7.06;100.00
81299;BME280;70766;53.170;18.160;2024-03-23T06:02:38;99988.84;;;7.14;100.00
81299;BME280;70766;53.170;18.160;2024-03-23T06:05:06;99989.84;;;7.25;100.00
81299;BME280;70766;53.170;18.160;2024-03-23T06:07:35;99993.73;;;7.38;100.00
81299;BME280;70766;53.170;18.160;2024-03-23T06:10:04;99985.03;;;7.52;100.00
81299;BME280;70766;53.170;18.160;2024-03-23T06:12:33;99971.93;;;7.61;100.00
81299;BME280;70766;53.170;18.160;2024-03-23T06:15:01;99977.66;;;7.69;100.00
81299;BME280;70766;53.170;18.160;2024-03-23T06:17:29;99993.23;;;7.72;100.00
81299;BME280;70766;53.170;18.160;2024-03-23T06:24:31;100005.92;;;7.38;100.00
81299;BME280;70766;53.170;18.160;2024-03-23T06:26:58;100007.67;;;7.36;100.00
81299;BME280;70766;53.170;18.160;2024-03-23T06:29:26;100007.89;;;7.27;100.00
81299;BME280;70766;53.170;18.160;2024-03-23T06:31:54;100011.60;;;7.19;100.00
81299;BME280;70766;53.170;18.160;2024-03-23T06:34:23;100012.80;;;7.19;100.00
81299;BME280;70766;53.170;18.160;2024-03-23T06:36:51;100007.05;;;7.21;100.00
81299;BME280;70766;53.170;18.160;2024-03-23T06:39:19;100005.61;;;7.21;100.00
81299;BME280;70766;53.170;18.160;2024-03-23T06:41:53;100001.02;;;7.20;100.00
81299;BME280;70766;53.170;18.160;2024-03-23T06:44:21;99999.05;;;7.21;100.00
81299;BME280;70766;53.170;18.160;2024-03-23T06:46:49;100004.25;;;7.21;100.00
81299;BME280;70766;53.170;18.160;2024-03-23T06:49:17;100003.77;;;7.25;100.00
81299;BME280;70766;53.170;18.160;2024-03-23T06:51:49;100001.80;;;7.27;100.00
81299;BME280;70766;53.170;18.160;2024-03-23T06:58:51;99998.48;;;7.28;100.00
81299;BME280;70766;53.170;18.160;2024-03-23T07:05:58;99994.29;;;7.22;100.00
81299;BME280;70766;53.170;18.160;2024-03-23T07:08:26;99993.43;;;7.20;100.00
81299;BME280;70766;53.170;18.160;2024-03-23T07:10:54;99990.96;;;7.20;100.00
81299;BME280;70766;53.170;18.160;2024-03-23T07:13:22;99986.73;;;7.17;100.00
81299;BME280;70766;53.170;18.160;2024-03-23T07:15:53;99980.58;;;7.17;100.00
81299;BME280;70766;53.170;18.160;2024-03-23T07:18:23;99980.71;;;7.20;100.00
81299;BME280;70766;53.170;18.160;2024-03-23T07:20:55;99983.80;;;7.22;100.00
81299;BME280;70766;53.170;18.160;2024-03-23T07:23:24;99990.58;;;7.21;100.00
81299;BME280;70766;53.170;18.160;2024-03-23T07:25:58;99991.17;;;7.23;100.00
81299;BME280;70766;53.170;18.160;2024-03-23T07:32:58;99999.81;;;7.21;100.00
81299;BME280;70766;53.170;18.160;2024-03-23T07:35:26;99996.35;;;7.23;100.00
81299;BME280;70766;53.170;18.160;2024-03-23T07:37:54;99989.72;;;7.17;100.00
81299;BME280;70766;53.170;18.160;2024-03-23T07:40:22;99980.88;;;7.15;100.00
81299;BME280;70766;53.170;18.160;2024-03-23T07:42:52;99978.09;;;7.18;100.00
81299;BME280;70766;53.170;18.160;2024-03-23T07:49:53;99982.73;;;7.23;100.00
81299;BME280;70766;53.170;18.160;2024-03-23T07:52:21;99979.88;;;7.12;100.00
81299;BME280;70766;53.170;18.160;2024-03-23T07:54:49;99966.29;;;7.10;100.00
81299;BME280;70766;53.170;18.160;2024-03-23T07:57:17;99966.70;;;7.12;100.00
81299;BME280;70766;53.170;18.160;2024-03-23T07:59:45;99970.98;;;7.07;100.00
81299;BME280;70766;53.170;18.160;2024-03-23T08:02:13;99966.69;;;7.01;100.00
81299;BME280;70766;53.170;18.160;2024-03-23T08:04:41;99968.96;;;7.02;100.00
81299;BME280;70766;53.170;18.160;2024-03-23T08:07:09;99960.16;;;7.06;100.00
81299;BME280;70766;53.170;18.160;2024-03-23T08:09:37;99952.77;;;7.06;100.00
81299;BME280;70766;53.170;18.160;2024-03-23T08:12:05;99953.79;;;7.05;100.00
81299;BME280;70766;53.170;18.160;2024-03-23T08:14:33;99949.88;;;6.99;100.00
81299;BME280;70766;53.170;18.160;2024-03-23T08:17:01;99947.87;;;6.96;100.00
81299;BME280;70766;53.170;18.160;2024-03-23T08:19:29;99944.34;;;6.88;100.00
81299;BME280;70766;53.170;18.160;2024-03-23T08:21:57;99938.91;;;6.85;100.00
81299;BME280;70766;53.170;18.160;2024-03-23T08:24:25;99938.89;;;6.92;100.00
81299;BME280;70766;53.170;18.160;2024-03-23T08:26:54;99935.98;;;7.02;100.00
81299;BME280;70766;53.170;18.160;2024-03-23T08:29:23;99934.14;;;7.08;100.00
81299;BME280;70766;53.170;18.160;2024-03-23T08:31:51;99924.02;;;7.14;100.00
81299;BME280;70766;53.170;18.160;2024-03-23T08:34:20;99920.98;;;7.23;100.00
81299;BME280;70766;53.170;18.160;2024-03-23T08:41:23;99903.80;;;7.31;100.00
81299;BME280;70766;53.170;18.160;2024-03-23T08:43:52;99902.13;;;7.36;100.00
81299;BME280;70766;53.170;18.160;2024-03-23T08:46:20;99909.14;;;7.37;100.00
81299;BME280;70766;53.170;18.160;2024-03-23T08:48:48;99905.50;;;7.29;100.00
81299;BME280;70766;53.170;18.160;2024-03-23T08:51:21;99899.55;;;7.16;100.00
81299;BME280;70766;53.170;18.160;2024-03-23T08:53:49;99893.20;;;7.21;100.00
81299;BME280;70766;53.170;18.160;2024-03-23T08:56:17;99899.54;;;7.09;100.00
81299;BME280;70766;53.170;18.160;2024-03-23T08:58:47;99909.66;;;6.96;100.00
81299;BME280;70766;53.170;18.160;2024-03-23T09:01:16;99911.32;;;6.82;100.00
81299;BME280;70766;53.170;18.160;2024-03-23T09:03:45;99906.75;;;6.67;100.00
81299;BME280;70766;53.170;18.160;2024-03-23T09:06:15;99904.21;;;6.59;100.00
81299;BME280;70766;53.170;18.160;2024-03-23T09:08:45;99908.92;;;6.46;100.00
81299;BME280;70766;53.170;18.160;2024-03-23T09:11:14;99905.00;;;6.45;100.00
81299;BME280;70766;53.170;18.160;2024-03-23T09:13:42;99896.31;;;6.39;100.00
81299;BME280;70766;53.170;18.160;2024-03-23T09:20:44;99856.47;;;6.78;100.00
81299;BME280;70766;53.170;18.160;2024-03-23T09:23:12;99855.83;;;6.98;100.00
81299;BME280;70766;53.170;18.160;2024-03-23T09:25:41;99860.36;;;6.82;100.00
81299;BME280;70766;53.170;18.160;2024-03-23T09:28:09;99864.34;;;6.75;100.00
81299;BME280;70766;53.170;18.160;2024-03-23T09:30:40;99857.94;;;6.39;100.00
81299;BME280;70766;53.170;18.160;2024-03-23T09:33:12;99863.89;;;6.38;100.00
81299;BME280;70766;53.170;18.160;2024-03-23T09:35:42;99857.67;;;6.46;100.00
81299;BME280;70766;53.170;18.160;2024-03-23T09:38:13;99855.40;;;6.60;100.00
81299;BME280;70766;53.170;18.160;2024-03-23T09:45:27;99846.91;;;6.59;100.00
81299;BME280;70766;53.170;18.160;2024-03-23T09:57:03;99831.29;;;6.70;100.00
81299;BME280;70766;53.170;18.160;2024-03-23T09:59:55;99821.65;;;6.69;100.00
81299;BME280;70766;53.170;18.160;2024-03-23T10:11:26;99817.29;;;6.53;100.00
81299;BME280;70766;53.170;18.160;2024-03-23T10:14:04;99825.59;;;6.44;100.00
81299;BME280;70766;53.170;18.160;2024-03-23T10:17:20;99828.84;;;6.21;100.00
81299;BME280;70766;53.170;18.160;2024-03-23T10:24:47;99818.34;;;6.30;100.00
81299;BME280;70766;53.170;18.160;2024-03-23T10:27:21;99815.19;;;6.62;100.00
81299;BME280;70766;53.170;18.160;2024-03-23T10:30:10;99814.03;;;6.79;100.00
81299;BME280;70766;53.170;18.160;2024-03-23T10:33:17;99807.77;;;6.63;100.00
81299;BME280;70766;53.170;18.160;2024-03-23T10:36:12;99797.41;;;6.94;100.00
81299;BME280;70766;53.170;18.160;2024-03-23T10:39:15;99798.07;;;6.96;100.00
81299;BME280;70766;53.170;18.160;2024-03-23T10:41:48;99798.55;;;6.87;100.00
81299;BME280;70766;53.170;18.160;2024-03-23T10:48:49;99786.77;;;7.03;100.00
81299;BME280;70766;53.170;18.160;2024-03-23T10:51:21;99784.56;;;7.06;100.00
81299;BME280;70766;53.170;18.160;2024-03-23T10:53:50;99781.89;;;6.94;100.00
81299;BME280;70766;53.170;18.160;2024-03-23T10:56:22;99778.20;;;6.88;100.00
81299;BME280;70766;53.170;18.160;2024-03-23T10:59:01;99769.46;;;6.87;100.00
81299;BME280;70766;53.170;18.160;2024-03-23T11:01:54;99770.52;;;6.88;100.00
81299;BME280;70766;53.170;18.160;2024-03-23T11:04:39;99756.08;;;6.85;100.00
81299;BME280;70766;53.170;18.160;2024-03-23T11:09:54;99751.25;;;7.02;100.00
81299;BME280;70766;53.170;18.160;2024-03-23T11:17:18;99735.01;;;7.12;100.00
81299;BME280;70766;53.170;18.160;2024-03-23T11:19:59;99726.73;;;7.28;100.00
81299;BME280;70766;53.170;18.160;2024-03-23T11:22:46;99712.16;;;7.22;100.00
81299;BME280;70766;53.170;18.160;2024-03-23T11:25:20;99701.11;;;7.25;100.00
81299;BME280;70766;53.170;18.160;2024-03-23T11:32:16;99704.94;;;7.17;100.00
81299;BME280;70766;53.170;18.160;2024-03-23T11:34:44;99704.35;;;7.12;100.00
81299;BME280;70766;53.170;18.160;2024-03-23T11:44:26;99698.58;;;7.34;100.00
81299;BME280;70766;53.170;18.160;2024-03-23T11:47:07;99692.98;;;7.25;100.00
81299;BME280;70766;53.170;18.160;2024-03-23T11:49:37;99694.01;;;7.14;100.00
81299;BME280;70766;53.170;18.160;2024-03-23T11:52:08;99693.77;;;7.01;100.00
81299;BME280;70766;53.170;18.160;2024-03-23T11:54:37;99695.03;;;6.92;100.00
81299;BME280;70766;53.170;18.160;2024-03-23T11:57:08;99690.41;;;6.77;100.00
81299;BME280;70766;53.170;18.160;2024-03-23T11:59:38;99685.85;;;6.75;100.00
81299;BME280;70766;53.170;18.160;2024-03-23T12:02:13;99683.24;;;6.72;100.00
81299;BME280;70766;53.170;18.160;2024-03-23T12:04:44;99683.41;;;6.64;100.00
81299;BME280;70766;53.170;18.160;2024-03-23T12:07:13;99681.80;;;6.59;100.00
81299;BME280;70766;53.170;18.160;2024-03-23T12:09:42;99674.33;;;6.49;100.00
81299;BME280;70766;53.170;18.160;2024-03-23T12:16:43;99654.91;;;6.28;100.00
81299;BME280;70766;53.170;18.160;2024-03-23T12:19:11;99642.55;;;6.30;100.00
81299;BME280;70766;53.170;18.160;2024-03-23T12:21:39;99640.73;;;6.31;100.00
81299;BME280;70766;53.170;18.160;2024-03-23T12:24:07;99636.02;;;6.31;100.00
81299;BME280;70766;53.170;18.160;2024-03-23T12:26:35;99632.08;;;6.25;100.00
81299;BME280;70766;53.170;18.160;2024-03-23T12:29:05;99630.48;;;6.25;100.00
81299;BME280;70766;53.170;18.160;2024-03-23T12:31:33;99633.67;;;6.25;100.00
81299;BME280;70766;53.170;18.160;2024-03-23T12:34:00;99641.86;;;6.19;100.00
81299;BME280;70766;53.170;18.160;2024-03-23T12:36:29;99653.04;;;6.11;100.00
81299;BME280;70766;53.170;18.160;2024-03-23T12:39:24;99651.48;;;5.98;100.00
81299;BME280;70766;53.170;18.160;2024-03-23T12:42:10;99646.45;;;5.92;100.00
81299;BME280;70766;53.170;18.160;2024-03-23T12:49:13;99600.38;;;5.85;100.00
81299;BME280;70766;53.170;18.160;2024-03-23T12:51:52;99626.05;;;5.76;100.00
81299;BME280;70766;53.170;18.160;2024-03-23T12:54:23;99632.73;;;5.65;100.00
81299;BME280;70766;53.170;18.160;2024-03-23T12:56:51;99625.39;;;5.61;100.00
81299;BME280;70766;53.170;18.160;2024-03-23T12:59:20;99612.96;;;5.59;100.00
81299;BME280;70766;53.170;18.160;2024-03-23T13:01:48;99605.88;;;5.55;100.00
81299;BME280;70766;53.170;18.160;2024-03-23T13:04:16;99592.89;;;5.52;100.00
81299;BME280;70766;53.170;18.160;2024-03-23T13:06:44;99581.64;;;5.44;100.00
81299;BME280;70766;53.170;18.160;2024-03-23T13:09:12;99570.00;;;5.40;100.00
81299;BME280;70766;53.170;18.160;2024-03-23T13:11:40;99562.27;;;5.31;100.00
81299;BME280;70766;53.170;18.160;2024-03-23T13:14:08;99544.88;;;5.27;100.00
81299;BME280;70766;53.170;18.160;2024-03-23T13:16:36;99532.73;;;5.24;100.00
81299;BME280;70766;53.170;18.160;2024-03-23T13:19:03;99525.47;;;5.24;100.00
81299;BME280;70766;53.170;18.160;2024-03-23T13:21:32;99537.38;;;5.21;100.00
81299;BME280;70766;53.170;18.160;2024-03-23T13:23:59;99543.07;;;5.12;100.00
81299;BME280;70766;53.170;18.160;2024-03-23T13:26:27;99549.39;;;5.05;100.00
81299;BME280;70766;53.170;18.160;2024-03-23T13:28:55;99558.59;;;5.00;100.00
81299;BME280;70766;53.170;18.160;2024-03-23T13:36:08;99572.66;;;4.91;100.00
81299;BME280;70766;53.170;18.160;2024-03-23T13:38:36;99568.91;;;4.94;100.00
81299;BME280;70766;53.170;18.160;2024-03-23T13:50:16;99577.13;;;4.90;100.00
81299;BME280;70766;53.170;18.160;2024-03-23T13:52:44;99575.96;;;4.87;100.00
81299;BME280;70766;53.170;18.160;2024-03-23T13:55:12;99570.90;;;4.86;100.00
81299;BME280;70766;53.170;18.160;2024-03-23T13:57:43;99569.51;;;4.82;100.00
81299;BME280;70766;53.170;18.160;2024-03-23T14:09:23;99591.33;;;4.60;100.00
81299;BME280;70766;53.170;18.160;2024-03-23T14:11:53;99601.75;;;4.61;100.00
81299;BME280;70766;53.170;18.160;2024-03-23T14:18:57;99603.09;;;4.49;100.00
81299;BME280;70766;53.170;18.160;2024-03-23T14:21:25;99614.27;;;4.45;100.00
81299;BME280;70766;53.170;18.160;2024-03-23T14:23:53;99625.84;;;4.46;100.00
81299;BME280;70766;53.170;18.160;2024-03-23T14:35:41;99643.98;;;4.38;100.00
81299;BME280;70766;53.170;18.160;2024-03-23T14:38:09;99639.65;;;4.36;100.00
81299;BME280;70766;53.170;18.160;2024-03-23T14:40:37;99646.97;;;4.35;100.00
81299;BME280;70766;53.170;18.160;2024-03-23T14:43:05;99657.84;;;4.34;100.00
81299;BME280;70766;53.170;18.160;2024-03-23T14:45:33;99658.63;;;4.31;100.00
81299;BME280;70766;53.170;18.160;2024-03-23T14:52:35;99677.60;;;4.22;100.00
81299;BME280;70766;53.170;18.160;2024-03-23T14:55:03;99678.73;;;4.20;100.00
81299;BME280;70766;53.170;18.160;2024-03-23T14:57:31;99689.75;;;4.11;100.00
81299;BME280;70766;53.170;18.160;2024-03-23T15:00:01;99713.51;;;4.07;100.00
81299;BME280;70766;53.170;18.160;2024-03-23T15:02:28;99731.24;;;4.00;100.00
81299;BME280;70766;53.170;18.160;2024-03-23T15:05:01;99735.37;;;3.99;100.00
81299;BME280;70766;53.170;18.160;2024-03-23T15:07:34;99734.61;;;3.97;100.00
81299;BME280;70766;53.170;18.160;2024-03-23T15:14:35;99732.52;;;3.98;100.00
81299;BME280;70766;53.170;18.160;2024-03-23T15:21:36;99738.48;;;3.91;100.00
81299;BME280;70766;53.170;18.160;2024-03-23T15:24:07;99730.04;;;3.89;100.00
81299;BME280;70766;53.170;18.160;2024-03-23T15:26:38;99733.11;;;3.88;100.00
81299;BME280;70766;53.170;18.160;2024-03-23T15:29:06;99745.71;;;3.86;100.00
81299;BME280;70766;53.170;18.160;2024-03-23T15:31:39;99761.55;;;3.87;100.00
81299;BME280;70766;53.170;18.160;2024-03-23T15:34:07;99767.94;;;3.88;100.00
81299;BME280;70766;53.170;18.160;2024-03-23T15:36:38;99767.08;;;3.90;100.00
81299;BME280;70766;53.170;18.160;2024-03-23T15:39:08;99777.97;;;3.92;100.00
81299;BME280;70766;53.170;18.160;2024-03-23T15:41:36;99788.97;;;3.96;100.00
81299;BME280;70766;53.170;18.160;2024-03-23T15:44:04;99793.05;;;3.93;100.00
81299;BME280;70766;53.170;18.160;2024-03-23T15:46:33;99803.54;;;3.85;100.00
81299;BME280;70766;53.170;18.160;2024-03-23T15:49:02;99803.21;;;3.82;100.00
81299;BME280;70766;53.170;18.160;2024-03-23T15:51:31;99799.62;;;3.83;100.00
81299;BME280;70766;53.170;18.160;2024-03-23T15:54:03;99792.64;;;3.81;100.00
81299;BME280;70766;53.170;18.160;2024-03-23T15:56:31;99794.89;;;3.81;100.00
81299;BME280;70766;53.170;18.160;2024-03-23T15:59:02;99794.65;;;3.82;100.00
81299;BME280;70766;53.170;18.160;2024-03-23T16:01:35;99787.95;;;3.84;100.00
81299;BME280;70766;53.170;18.160;2024-03-23T16:13:33;99824.12;;;3.98;100.00
81299;BME280;70766;53.170;18.160;2024-03-23T16:16:05;99826.05;;;3.99;100.00
81299;BME280;70766;53.170;18.160;2024-03-23T16:18:38;99835.19;;;3.97;100.00
81299;BME280;70766;53.170;18.160;2024-03-23T16:25:47;99849.44;;;3.94;100.00
81299;BME280;70766;53.170;18.160;2024-03-23T16:28:27;99847.64;;;3.89;100.00
81299;BME280;70766;53.170;18.160;2024-03-23T16:31:03;99858.63;;;3.87;100.00
81299;BME280;70766;53.170;18.160;2024-03-23T16:33:53;99864.50;;;3.84;100.00
81299;BME280;70766;53.170;18.160;2024-03-23T16:36:59;99861.70;;;3.82;100.00
81299;BME280;70766;53.170;18.160;2024-03-23T16:39:27;99850.14;;;3.79;100.00
81299;BME280;70766;53.170;18.160;2024-03-23T16:41:57;99857.02;;;3.82;100.00
81299;BME280;70766;53.170;18.160;2024-03-23T16:44:25;99846.30;;;3.84;100.00